Time;durP1;ratioP1;P1;durP2;ratioP2;P2;SDS_P1;SDS_P2;PMS_P1;PMS_P2;Temp;Humidity;BMP_temperature;BMP_pressure;BME280_temperature;BME280_humidity;BME280_pressure;Samples;Min_cycle;Max_cycle;Signal;HPM_P1;HPM_P2
2021/12/23 00:02:17;;;;;;;32.92;27.10;;;3.50;97.00;;;;;;5092943;28;20215;-61
2021/12/23 00:04:46;;;;;;;47.50;33.30;;;3.50;96.80;;;;;;5092407;28;20223;-61
2021/12/23 00:07:13;;;;;;;27.85;21.25;;;3.40;96.80;;;;;;5092846;28;20233;-61
2021/12/23 00:10:04;;;;;;;30.50;22.45;;;3.40;96.70;;;;;;5091915;28;20510;-62
2021/12/23 00:12:32;;;;;;;23.77;18.30;;;3.30;96.60;;;;;;5092794;28;20625;-62
2021/12/23 00:14:59;;;;;;;26.17;19.00;;;3.30;96.80;;;;;;5092424;28;20230;-62
2021/12/23 00:17:41;;;;;;;40.67;32.70;;;3.30;96.80;;;;;;5092852;28;20264;-62
2021/12/23 00:25:38;;;;;;;29.60;23.05;;;3.30;96.90;;;;;;5079467;28;20569;-62
2021/12/23 00:28:06;;;;;;;26.52;17.73;;;3.40;96.80;;;;;;5092058;28;20237;-62
2021/12/23 00:30:33;;;;;;;30.77;23.02;;;3.30;96.80;;;;;;5092606;28;20309;-62
2021/12/23 00:33:00;;;;;;;21.17;16.80;;;3.30;96.80;;;;;;5092110;28;20231;-62
2021/12/23 00:35:27;;;;;;;32.60;23.63;;;3.30;96.70;;;;;;5092510;28;20679;-62
2021/12/23 00:38:00;;;;;;;38.95;26.20;;;3.30;96.70;;;;;;5078928;28;20222;-62
2021/12/23 00:40:30;;;;;;;39.67;29.08;;;3.30;96.60;;;;;;5092363;28;20246;-61
2021/12/23 00:42:57;;;;;;;29.33;22.02;;;3.30;96.80;;;;;;5092013;28;20302;-62
2021/12/23 00:45:25;;;;;;;26.48;18.73;;;3.30;96.90;;;;;;5092482;28;20225;-61
2021/12/23 00:47:52;;;;;;;27.15;18.80;;;3.30;96.70;;;;;;5092236;28;20312;-61
2021/12/23 00:50:19;;;;;;;31.98;22.02;;;3.20;96.70;;;;;;5092122;28;20313;-61
2021/12/23 00:52:54;;;;;;;32.90;23.15;;;3.20;96.60;;;;;;5091827;28;20236;-62
2021/12/23 00:55:21;;;;;;;30.88;20.15;;;3.20;96.70;;;;;;5092428;28;20222;-61
2021/12/23 00:57:48;;;;;;;27.58;18.52;;;3.20;96.70;;;;;;5091697;28;20764;-62
2021/12/23 01:00:18;;;;;;;24.88;18.38;;;3.10;96.70;;;;;;5092135;28;20229;-62
2021/12/23 01:02:47;;;;;;;24.38;17.42;;;3.10;96.60;;;;;;5092585;28;20628;-62
2021/12/23 01:05:18;;;;;;;19.88;16.05;;;3.10;96.70;;;;;;5091796;28;20218;-62
2021/12/23 01:07:45;;;;;;;31.88;21.13;;;3.10;96.60;;;;;;5092088;28;20221;-61
2021/12/23 01:10:13;;;;;;;27.85;20.67;;;3.10;96.70;;;;;;5091645;28;20231;-62
2021/12/23 01:12:45;;;;;;;24.50;18.75;;;3.10;96.70;;;;;;5092314;28;20233;-62
2021/12/23 01:15:16;;;;;;;26.00;20.52;;;3.00;96.90;;;;;;5091583;28;20222;-62
2021/12/23 01:17:56;;;;;;;19.55;15.30;;;3.00;96.70;;;;;;5092302;28;20239;-62
2021/12/23 01:20:29;;;;;;;21.13;17.27;;;3.00;96.70;;;;;;5092056;28;20254;-62
2021/12/23 01:22:57;;;;;;;24.45;18.35;;;3.00;96.80;;;;;;5094564;28;20265;-62
2021/12/23 01:25:24;;;;;;;23.27;18.50;;;3.00;96.80;;;;;;5095976;28;20584;-62
2021/12/23 01:27:52;;;;;;;22.02;18.05;;;3.00;96.90;;;;;;5095845;28;20715;-62
2021/12/23 01:30:19;;;;;;;26.27;17.38;;;3.00;97.00;;;;;;5095591;28;20232;-62
2021/12/23 01:32:47;;;;;;;19.85;15.27;;;3.10;97.00;;;;;;5095766;28;20230;-62
2021/12/23 01:35:15;;;;;;;25.40;16.70;;;3.00;96.80;;;;;;5095553;28;20317;-62
2021/12/23 01:37:44;;;;;;;17.50;13.98;;;3.00;96.80;;;;;;5095736;28;20237;-62
2021/12/23 01:40:14;;;;;;;19.15;15.50;;;3.00;96.80;;;;;;5095231;28;20234;-62
2021/12/23 01:42:41;;;;;;;21.70;16.05;;;3.00;96.70;;;;;;5095857;28;20228;-62
2021/12/23 01:45:11;;;;;;;29.30;17.58;;;3.00;96.60;;;;;;5095253;28;20225;-62
2021/12/23 01:47:38;;;;;;;23.48;17.15;;;2.90;96.70;;;;;;5095512;28;20744;-62
2021/12/23 01:50:06;;;;;;;28.52;20.15;;;2.90;96.70;;;;;;5095056;28;20694;-63
2021/12/23 01:52:33;;;;;;;20.92;15.52;;;2.90;96.70;;;;;;5081919;28;20236;-62
2021/12/23 01:55:01;;;;;;;19.70;15.55;;;2.90;96.80;;;;;;5095376;28;20248;-62
2021/12/23 01:57:31;;;;;;;21.60;16.70;;;2.90;96.90;;;;;;5094936;28;20960;-62
2021/12/23 01:59:59;;;;;;;21.23;17.08;;;2.90;96.80;;;;;;5095326;28;20553;-62
2021/12/23 02:02:27;;;;;;;17.38;14.45;;;3.00;96.80;;;;;;5095167;28;20226;-62
2021/12/23 02:04:54;;;;;;;31.92;20.05;;;2.90;96.70;;;;;;5095362;28;20247;-62
2021/12/23 02:07:21;;;;;;;20.58;16.38;;;2.90;96.60;;;;;;5094819;28;20240;-62
2021/12/23 02:09:48;;;;;;;23.10;16.52;;;2.90;96.70;;;;;;5095100;28;20235;-62
2021/12/23 02:12:17;;;;;;;20.60;16.67;;;2.90;96.60;;;;;;5094815;28;20240;-62
2021/12/23 02:14:44;;;;;;;20.05;16.38;;;2.90;96.50;;;;;;5095105;28;20307;-62
2021/12/23 02:17:11;;;;;;;20.33;15.10;;;2.90;96.50;;;;;;5094599;28;20329;-62
2021/12/23 02:19:38;;;;;;;21.58;16.23;;;2.90;96.50;;;;;;5095191;28;20567;-62
2021/12/23 02:22:06;;;;;;;21.13;15.38;;;2.90;96.50;;;;;;5093842;28;20222;-61
2021/12/23 02:24:33;;;;;;;24.63;15.55;;;2.90;96.60;;;;;;5094312;28;20226;-62
2021/12/23 02:27:00;;;;;;;19.42;15.40;;;2.90;96.60;;;;;;5094113;28;20230;-62
2021/12/23 02:29:27;;;;;;;19.73;15.80;;;2.90;96.50;;;;;;5093319;28;20225;-62
2021/12/23 02:31:55;;;;;;;19.65;14.95;;;2.90;96.50;;;;;;5093955;28;20235;-62
2021/12/23 02:34:22;;;;;;;16.75;14.52;;;2.90;96.60;;;;;;5093193;28;20230;-62
2021/12/23 02:36:51;;;;;;;19.20;15.55;;;2.90;96.60;;;;;;5094744;28;20819;-62
2021/12/23 02:39:20;;;;;;;20.00;15.05;;;2.90;96.60;;;;;;5093984;28;20225;-62
2021/12/23 02:41:48;;;;;;;21.20;14.82;;;2.90;96.60;;;;;;5094940;28;20227;-62
2021/12/23 02:44:15;;;;;;;21.52;15.55;;;2.90;96.50;;;;;;5094069;28;20688;-62
2021/12/23 02:46:42;;;;;;;20.30;15.50;;;2.80;96.90;;;;;;5094639;28;20240;-62
2021/12/23 02:49:10;;;;;;;22.30;16.25;;;2.80;96.60;;;;;;5093876;28;20237;-62
2021/12/23 02:51:37;;;;;;;27.45;18.50;;;2.80;96.70;;;;;;5094482;28;20232;-62
2021/12/23 02:54:04;;;;;;;18.45;16.27;;;2.70;96.50;;;;;;5094340;28;20239;-62
2021/12/23 02:56:33;;;;;;;18.55;15.52;;;2.80;96.60;;;;;;5093635;28;20221;-62
2021/12/23 02:59:03;;;;;;;22.15;15.65;;;2.80;96.60;;;;;;5082798;28;20235;-62
2021/12/23 03:01:30;;;;;;;18.17;15.55;;;2.80;96.70;;;;;;5093808;28;20656;-62
2021/12/23 03:03:57;;;;;;;20.15;16.75;;;2.80;96.60;;;;;;5094227;28;20225;-62
2021/12/23 03:06:25;;;;;;;20.52;14.80;;;2.70;96.60;;;;;;5093385;28;20225;-62
2021/12/23 03:08:54;;;;;;;20.73;16.30;;;2.70;96.50;;;;;;5094203;28;20250;-62
2021/12/23 03:11:23;;;;;;;19.50;16.77;;;2.80;96.60;;;;;;5093418;28;20233;-62
2021/12/23 03:13:52;;;;;;;24.90;17.38;;;2.70;96.50;;;;;;5094041;28;20244;-62
2021/12/23 03:16:22;;;;;;;22.02;15.40;;;2.70;96.70;;;;;;5093580;28;20857;-62
2021/12/23 03:18:50;;;;;;;18.13;15.77;;;2.70;96.70;;;;;;5093534;28;20571;-62
2021/12/23 03:21:17;;;;;;;19.95;16.88;;;2.70;96.70;;;;;;5092972;28;20230;-62
2021/12/23 03:23:44;;;;;;;20.90;16.98;;;2.70;96.50;;;;;;5093859;28;20231;-62
2021/12/23 03:26:11;;;;;;;21.60;16.15;;;2.70;96.50;;;;;;5093009;28;20225;-63
2021/12/23 03:28:41;;;;;;;21.27;17.30;;;2.70;96.50;;;;;;5093380;28;20564;-61
2021/12/23 03:31:09;;;;;;;22.58;17.38;;;2.70;96.50;;;;;;5093739;28;20318;-61
2021/12/23 03:33:36;;;;;;;25.73;17.58;;;2.70;96.50;;;;;;5093221;28;20232;-61
2021/12/23 03:36:04;;;;;;;20.20;16.50;;;2.70;96.50;;;;;;5093551;28;20226;-60
2021/12/23 03:38:31;;;;;;;21.98;17.30;;;2.70;96.60;;;;;;5093278;28;20259;-61
2021/12/23 03:40:58;;;;;;;23.73;18.25;;;2.70;96.50;;;;;;5093185;28;20241;-61
2021/12/23 03:43:26;;;;;;;26.45;17.40;;;2.70;96.50;;;;;;5093018;28;20217;-62
2021/12/23 03:45:53;;;;;;;23.05;17.67;;;2.70;96.50;;;;;;5092614;28;20564;-61
2021/12/23 03:48:22;;;;;;;22.63;17.50;;;2.70;96.50;;;;;;5092568;28;20236;-61
2021/12/23 03:50:50;;;;;;;21.05;17.17;;;2.70;96.40;;;;;;5093117;28;20234;-61
2021/12/23 03:53:17;;;;;;;19.75;15.80;;;2.70;96.60;;;;;;5092723;28;20243;-61
2021/12/23 03:55:44;;;;;;;24.65;18.02;;;2.70;96.60;;;;;;5092959;28;20237;-61
2021/12/23 03:58:11;;;;;;;24.67;18.40;;;2.70;96.50;;;;;;5092886;28;20229;-61
2021/12/23 04:00:37;;;;;;;24.75;16.58;;;2.70;96.50;;;;;;5092250;28;20252;-61
2021/12/23 04:03:05;;;;;;;20.77;17.65;;;2.70;96.30;;;;;;5092784;28;20300;-62
2021/12/23 04:05:33;;;;;;;20.67;17.15;;;2.70;96.40;;;;;;5092439;28;20236;-61
2021/12/23 04:08:00;;;;;;;24.33;17.92;;;2.70;96.40;;;;;;5092644;28;20233;-61
2021/12/23 04:10:27;;;;;;;23.92;18.38;;;2.70;96.40;;;;;;5079037;28;20230;-61
2021/12/23 04:12:54;;;;;;;25.08;18.92;;;2.70;96.40;;;;;;5092988;28;20298;-61
2021/12/23 04:15:22;;;;;;;23.63;17.55;;;2.70;96.40;;;;;;5092543;28;20229;-62
2021/12/23 04:17:49;;;;;;;23.15;16.63;;;2.70;96.30;;;;;;5092619;28;20236;-61
2021/12/23 04:20:19;;;;;;;22.02;17.40;;;2.70;96.40;;;;;;5092199;28;20222;-60
2021/12/23 04:22:50;;;;;;;22.05;17.65;;;2.70;96.60;;;;;;5092725;28;20284;-61
2021/12/23 04:25:19;;;;;;;24.65;18.20;;;2.70;96.30;;;;;;5092353;28;20240;-61
2021/12/23 04:27:47;;;;;;;24.05;17.95;;;2.80;96.40;;;;;;5092531;28;20221;-62
2021/12/23 04:30:15;;;;;;;20.23;15.95;;;2.80;96.40;;;;;;5092527;28;20234;-61
2021/12/23 04:32:42;;;;;;;22.70;17.95;;;2.80;96.30;;;;;;5092350;28;21294;-61
2021/12/23 04:35:10;;;;;;;25.17;18.90;;;2.80;96.30;;;;;;5092514;28;20225;-61
2021/12/23 04:37:37;;;;;;;25.65;18.00;;;2.80;96.30;;;;;;5092132;28;20230;-62
2021/12/23 04:40:08;;;;;;;26.33;18.85;;;2.80;96.20;;;;;;5092331;28;20240;-61
2021/12/23 04:42:36;;;;;;;22.63;18.55;;;2.70;96.20;;;;;;5092133;28;20229;-61
2021/12/23 04:45:04;;;;;;;26.00;18.00;;;2.80;96.30;;;;;;5092615;28;20222;-62
2021/12/23 04:47:31;;;;;;;24.90;18.35;;;2.80;96.30;;;;;;5090638;28;20262;-61
2021/12/23 04:49:58;;;;;;;20.88;17.75;;;2.70;96.20;;;;;;5090827;28;20236;-62
2021/12/23 04:52:25;;;;;;;27.65;18.23;;;2.80;96.20;;;;;;5091704;28;20222;-61
2021/12/23 04:54:52;;;;;;;29.42;20.23;;;2.70;96.00;;;;;;5092156;28;20233;-61
2021/12/23 04:57:20;;;;;;;29.52;19.23;;;2.70;96.10;;;;;;5096753;28;20228;-62
2021/12/23 04:59:47;;;;;;;25.65;18.27;;;2.70;96.10;;;;;;5098885;28;20225;-62
2021/12/23 05:02:14;;;;;;;24.83;18.63;;;2.70;96.30;;;;;;5098866;28;20236;-61
2021/12/23 05:04:44;;;;;;;23.50;18.10;;;2.70;96.30;;;;;;5098486;28;20228;-62
2021/12/23 05:07:11;;;;;;;26.63;19.30;;;2.70;96.30;;;;;;5097251;28;20222;-61
2021/12/23 05:09:38;;;;;;;22.60;17.65;;;2.70;96.40;;;;;;5096624;28;20571;-62
2021/12/23 05:12:06;;;;;;;24.40;17.80;;;2.70;96.40;;;;;;5098304;28;20856;-61
2021/12/23 05:14:34;;;;;;;23.98;18.85;;;2.70;96.40;;;;;;5098191;28;20566;-61
2021/12/23 05:17:01;;;;;;;26.48;20.58;;;2.70;96.50;;;;;;5098812;28;20226;-62
2021/12/23 05:19:28;;;;;;;25.38;18.02;;;2.70;96.30;;;;;;5098084;28;20233;-61
2021/12/23 05:21:55;;;;;;;22.55;17.50;;;2.80;96.30;;;;;;5098774;28;20221;-62
2021/12/23 05:24:22;;;;;;;25.15;18.85;;;2.70;96.20;;;;;;5098380;28;20213;-61
2021/12/23 05:26:48;;;;;;;23.85;18.35;;;2.80;96.30;;;;;;5098670;28;20676;-61
2021/12/23 05:29:15;;;;;;;23.77;18.95;;;2.80;96.30;;;;;;5098294;28;20244;-62
2021/12/23 05:31:44;;;;;;;27.83;18.55;;;2.90;96.30;;;;;;5098402;28;20652;-62
2021/12/23 05:34:11;;;;;;;22.60;18.75;;;2.90;96.20;;;;;;5098775;28;20230;-63
2021/12/23 05:36:37;;;;;;;23.38;18.00;;;2.90;96.30;;;;;;5098057;28;20217;-62
2021/12/23 05:39:05;;;;;;;23.98;18.52;;;3.00;96.40;;;;;;5098572;28;20224;-62
2021/12/23 05:41:32;;;;;;;22.30;17.45;;;3.00;96.30;;;;;;5098404;28;20223;-62
2021/12/23 05:43:59;;;;;;;24.10;18.50;;;3.00;96.20;;;;;;5098444;28;20230;-61
2021/12/23 05:46:26;;;;;;;34.63;18.75;;;3.00;96.10;;;;;;5098244;28;20218;-61
2021/12/23 05:48:54;;;;;;;24.08;19.30;;;3.00;96.10;;;;;;5097703;28;20602;-62
2021/12/23 05:51:21;;;;;;;29.95;19.63;;;3.00;96.00;;;;;;5098508;28;20724;-61
2021/12/23 05:53:48;;;;;;;25.10;19.67;;;3.00;95.90;;;;;;5098001;28;21013;-62
2021/12/23 05:56:15;;;;;;;22.40;17.83;;;3.10;96.00;;;;;;5098341;28;20229;-61
2021/12/23 05:58:42;;;;;;;30.38;20.60;;;3.10;95.90;;;;;;5097914;28;20312;-61
2021/12/23 06:01:09;;;;;;;26.55;19.80;;;3.10;96.00;;;;;;5098253;28;20309;-62
2021/12/23 06:03:36;;;;;;;22.98;18.17;;;3.10;96.20;;;;;;5097934;28;20228;-61
2021/12/23 06:06:04;;;;;;;24.50;17.92;;;3.10;96.20;;;;;;5097350;28;20228;-62
2021/12/23 06:08:31;;;;;;;23.42;19.10;;;3.10;96.10;;;;;;5094684;28;20222;-61
2021/12/23 06:10:58;;;;;;;27.27;19.08;;;3.10;96.10;;;;;;5095279;28;20605;-61
2021/12/23 06:13:24;;;;;;;24.77;17.75;;;3.10;96.10;;;;;;5094917;28;20558;-62
2021/12/23 06:15:51;;;;;;;21.23;18.48;;;3.10;96.00;;;;;;5094892;28;20223;-62
2021/12/23 06:18:18;;;;;;;28.17;20.27;;;3.10;96.00;;;;;;5095045;28;20222;-61
2021/12/23 06:20:45;;;;;;;26.02;21.60;;;3.10;96.10;;;;;;5094515;28;20334;-62
2021/12/23 06:23:13;;;;;;;25.48;18.60;;;3.10;96.10;;;;;;5094811;28;20618;-61
2021/12/23 06:25:40;;;;;;;24.25;19.73;;;3.10;96.00;;;;;;5094688;28;20228;-62
2021/12/23 06:28:07;;;;;;;26.15;18.58;;;3.10;95.70;;;;;;5094630;28;20313;-61
2021/12/23 06:30:34;;;;;;;27.85;19.90;;;3.10;95.70;;;;;;5094326;28;20688;-61
2021/12/23 06:33:01;;;;;;;24.80;17.25;;;3.10;95.80;;;;;;5094606;28;20222;-62
2021/12/23 06:35:31;;;;;;;29.67;19.95;;;3.10;95.80;;;;;;5094513;28;20222;-61
2021/12/23 06:38:02;;;;;;;22.90;17.85;;;3.10;95.70;;;;;;5094455;28;20282;-62
2021/12/23 06:40:35;;;;;;;25.83;18.02;;;3.10;95.80;;;;;;5094384;28;20222;-62
2021/12/23 06:43:02;;;;;;;23.73;18.27;;;3.10;95.80;;;;;;5081432;28;20215;-62
2021/12/23 06:45:29;;;;;;;22.17;17.45;;;3.10;95.70;;;;;;5094244;28;20218;-62
2021/12/23 06:47:56;;;;;;;22.33;17.10;;;3.10;95.70;;;;;;5094182;28;20212;-62
2021/12/23 06:50:23;;;;;;;25.77;19.20;;;3.20;95.70;;;;;;5094016;28;20690;-63
2021/12/23 06:52:50;;;;;;;25.27;19.48;;;3.20;95.60;;;;;;5094152;28;20229;-62
2021/12/23 06:55:21;;;;;;;22.42;17.35;;;3.20;95.70;;;;;;5094335;28;20229;-60
2021/12/23 06:57:54;;;;;;;21.05;17.77;;;3.00;95.30;;;;;;5085798;28;20300;-61
2021/12/23 07:00:22;;;;;;;27.55;20.52;;;3.10;95.50;;;;;;5094230;28;20245;-61
2021/12/23 07:02:48;;;;;;;23.30;18.35;;;3.10;95.60;;;;;;5093819;28;20234;-61
2021/12/23 07:05:16;;;;;;;24.23;17.85;;;3.10;95.70;;;;;;5094126;28;20219;-60
2021/12/23 07:07:53;;;;;;;24.38;19.67;;;3.10;95.60;;;;;;5093804;28;20237;-61
2021/12/23 07:10:21;;;;;;;24.63;17.00;;;3.00;95.60;;;;;;5093962;28;20647;-61
2021/12/23 07:12:49;;;;;;;21.33;17.73;;;3.00;95.70;;;;;;5093105;28;20267;-60
2021/12/23 07:15:16;;;;;;;24.35;17.45;;;2.90;95.60;;;;;;5091106;28;20425;-61
2021/12/23 07:17:43;;;;;;;24.33;18.15;;;3.00;95.70;;;;;;5092145;28;20222;-61
2021/12/23 07:20:11;;;;;;;23.25;17.90;;;3.00;95.70;;;;;;5091640;28;20231;-61
2021/12/23 07:22:38;;;;;;;22.75;15.80;;;3.00;95.80;;;;;;5093068;28;20218;-61
2021/12/23 07:25:06;;;;;;;25.05;17.88;;;3.00;95.80;;;;;;5092707;28;20222;-61
2021/12/23 07:27:33;;;;;;;26.20;18.63;;;3.00;95.80;;;;;;5092865;28;20232;-61
2021/12/23 07:30:02;;;;;;;24.92;18.63;;;2.90;95.80;;;;;;5092777;28;20684;-61
2021/12/23 07:32:29;;;;;;;24.90;17.88;;;3.00;96.00;;;;;;5093750;28;20224;-61
2021/12/23 07:34:55;;;;;;;21.77;17.20;;;3.00;95.90;;;;;;5093069;28;20316;-61
2021/12/23 07:37:22;;;;;;;23.38;17.75;;;3.10;96.00;;;;;;5093428;28;20703;-61
2021/12/23 07:39:50;;;;;;;22.15;17.13;;;3.10;95.70;;;;;;5092758;28;20230;-61
2021/12/23 07:42:18;;;;;;;21.90;17.10;;;3.10;95.80;;;;;;5093405;28;20221;-61
2021/12/23 07:44:46;;;;;;;18.90;16.95;;;3.10;95.70;;;;;;5092740;28;20235;-61
2021/12/23 07:47:16;;;;;;;25.25;17.73;;;3.10;95.70;;;;;;5093173;28;20236;-61
2021/12/23 07:49:43;;;;;;;22.75;17.88;;;3.20;95.80;;;;;;5092324;28;20628;-59
2021/12/23 07:52:10;;;;;;;24.40;19.00;;;3.20;95.80;;;;;;5093405;28;20680;-61
2021/12/23 07:54:39;;;;;;;22.65;16.77;;;3.10;95.80;;;;;;5092856;28;20278;-61
2021/12/23 07:57:07;;;;;;;21.40;17.15;;;3.20;95.90;;;;;;5092557;28;20226;-61
2021/12/23 07:59:33;;;;;;;25.02;18.45;;;3.10;95.80;;;;;;5093195;28;20628;-61
2021/12/23 08:02:01;;;;;;;26.48;19.17;;;3.10;95.80;;;;;;5092406;28;20235;-62
2021/12/23 08:04:30;;;;;;;25.80;19.17;;;3.00;95.80;;;;;;5092998;28;20710;-62
2021/12/23 08:06:58;;;;;;;25.88;17.90;;;3.00;95.90;;;;;;5092851;28;20241;-62
2021/12/23 08:09:26;;;;;;;21.13;17.05;;;3.00;96.00;;;;;;5092613;28;20221;-62
2021/12/23 08:11:53;;;;;;;22.50;18.70;;;3.00;96.00;;;;;;5092369;28;20713;-62
2021/12/23 08:14:20;;;;;;;22.10;17.88;;;3.00;96.00;;;;;;5092814;28;20304;-62
2021/12/23 08:16:48;;;;;;;23.77;17.35;;;3.00;96.00;;;;;;5092320;28;20222;-62
2021/12/23 08:19:15;;;;;;;19.35;17.25;;;3.00;96.10;;;;;;5092601;28;20217;-62
2021/12/23 08:21:43;;;;;;;25.05;17.45;;;3.00;96.20;;;;;;5092677;28;20236;-62
2021/12/23 08:24:10;;;;;;;21.52;18.00;;;3.10;96.30;;;;;;5092134;28;20288;-62
2021/12/23 08:26:42;;;;;;;26.17;17.33;;;3.10;96.30;;;;;;5092701;28;20272;-62
2021/12/23 08:29:10;;;;;;;23.67;17.42;;;3.10;96.30;;;;;;5092320;28;20245;-62
2021/12/23 08:31:37;;;;;;;20.95;17.73;;;3.10;96.60;;;;;;5092241;28;20237;-62
2021/12/23 08:34:04;;;;;;;25.38;17.80;;;3.10;96.20;;;;;;5092101;28;20312;-62
2021/12/23 08:36:31;;;;;;;21.50;16.55;;;3.10;96.20;;;;;;5092537;28;20431;-62
2021/12/23 08:38:59;;;;;;;26.80;18.92;;;3.10;96.30;;;;;;5092046;28;20236;-62
2021/12/23 08:41:26;;;;;;;24.50;20.42;;;3.10;96.20;;;;;;5092298;28;20230;-62
2021/12/23 08:43:54;;;;;;;27.67;20.08;;;3.20;96.30;;;;;;5092129;28;20221;-62
2021/12/23 08:46:21;;;;;;;29.50;19.02;;;3.20;96.20;;;;;;5092446;28;20226;-62
2021/12/23 08:48:48;;;;;;;23.48;18.20;;;3.10;96.20;;;;;;5086864;28;20234;-61
2021/12/23 08:51:15;;;;;;;22.63;17.45;;;3.10;96.10;;;;;;5072254;28;20283;-62
2021/12/23 08:53:43;;;;;;;22.60;16.35;;;3.10;96.10;;;;;;5071811;28;20222;-62
2021/12/23 08:56:11;;;;;;;25.77;18.05;;;3.20;96.20;;;;;;5071593;28;20256;-62
2021/12/23 08:58:39;;;;;;;21.70;16.63;;;3.20;96.10;;;;;;5072319;28;20233;-62
2021/12/23 09:01:06;;;;;;;24.75;18.35;;;3.20;96.00;;;;;;5071408;28;20230;-62
2021/12/23 09:03:33;;;;;;;23.77;17.45;;;3.30;96.00;;;;;;5072062;28;20218;-62
2021/12/23 09:06:02;;;;;;;19.27;16.38;;;3.30;96.00;;;;;;5071547;28;20232;-62
2021/12/23 09:08:29;;;;;;;22.55;17.35;;;3.30;95.90;;;;;;5071701;28;20223;-62
2021/12/23 09:10:58;;;;;;;21.27;16.95;;;3.30;95.80;;;;;;5071660;28;20306;-62
2021/12/23 09:13:29;;;;;;;23.40;17.08;;;3.30;95.70;;;;;;5071966;28;20228;-62
2021/12/23 09:15:57;;;;;;;22.58;16.75;;;3.30;95.80;;;;;;5071515;28;20234;-62
2021/12/23 09:18:24;;;;;;;25.77;17.10;;;3.40;95.90;;;;;;5071815;28;20238;-62
2021/12/23 09:20:51;;;;;;;20.55;17.75;;;3.40;95.70;;;;;;5071540;28;20588;-62
2021/12/23 09:23:18;;;;;;;22.02;17.48;;;3.40;95.70;;;;;;5071483;28;20225;-62
2021/12/23 09:25:47;;;;;;;17.65;15.75;;;3.40;95.60;;;;;;5071879;28;20225;-62
2021/12/23 09:28:30;;;;;;;24.55;17.90;;;3.40;95.50;;;;;;5071337;28;20227;-62
2021/12/23 09:33:44;;;;;;;20.90;15.73;;;3.30;95.60;;;;;;5071895;28;20232;-62
2021/12/23 09:36:13;;;;;;;25.55;17.27;;;3.40;95.70;;;;;;5071225;28;20260;-62
2021/12/23 09:38:40;;;;;;;23.60;17.92;;;3.40;95.70;;;;;;5071966;28;20240;-62
2021/12/23 09:41:09;;;;;;;26.85;18.27;;;3.40;95.70;;;;;;5071226;28;20237;-62
2021/12/23 09:43:39;;;;;;;23.48;18.80;;;3.40;95.60;;;;;;5074003;28;20230;-62
2021/12/23 09:46:10;;;;;;;20.90;16.73;;;3.30;95.40;;;;;;5075211;28;20227;-61
2021/12/23 09:48:39;;;;;;;22.10;17.02;;;3.40;95.60;;;;;;5078503;28;20246;-61
2021/12/23 09:51:07;;;;;;;23.90;18.73;;;3.50;95.60;;;;;;5095409;28;20234;-63
2021/12/23 09:53:36;;;;;;;26.90;20.08;;;3.40;95.40;;;;;;5095541;28;20673;-61
2021/12/23 09:56:03;;;;;;;24.05;17.92;;;3.40;95.50;;;;;;5095045;28;20560;-62
2021/12/23 09:58:31;;;;;;;22.92;16.63;;;3.40;95.60;;;;;;5095516;28;20680;-63
2021/12/23 10:00:59;;;;;;;22.35;16.70;;;3.40;95.60;;;;;;5095030;28;20223;-62
2021/12/23 10:03:28;;;;;;;21.10;16.05;;;3.40;95.70;;;;;;5095333;28;20223;-62
2021/12/23 10:05:57;;;;;;;22.42;17.02;;;3.50;95.80;;;;;;5094554;28;20237;-62
2021/12/23 10:08:25;;;;;;;24.10;17.58;;;3.50;96.00;;;;;;5095093;28;20727;-62
2021/12/23 10:10:56;;;;;;;21.73;16.48;;;3.50;95.90;;;;;;5095190;28;20558;-62
2021/12/23 10:28:44;;;;;;;22.30;17.75;;;3.70;95.60;;;;;;5095300;28;20247;-62
2021/12/23 10:30:35;;;;;;;22.20;17.77;;;3.60;95.60;;;;;;5094829;28;20286;-62
2021/12/23 10:38:38;;;;;;;23.20;15.85;;;3.60;95.60;;;;;;5094333;28;20233;-62
2021/12/23 10:41:07;;;;;;;20.90;16.02;;;3.60;95.70;;;;;;5094965;28;20631;-62
2021/12/23 10:43:36;;;;;;;23.42;18.25;;;3.70;95.70;;;;;;5094439;28;20214;-62
2021/12/23 10:46:06;;;;;;;24.83;17.33;;;3.70;95.70;;;;;;5094840;28;20743;-62
2021/12/23 10:48:34;;;;;;;24.17;17.05;;;3.70;95.60;;;;;;5094172;28;20882;-62
2021/12/23 10:51:07;;;;;;;23.33;16.95;;;3.80;95.80;;;;;;5094574;28;20484;-62
2021/12/23 10:53:47;;;;;;;21.30;16.95;;;3.80;95.70;;;;;;5093944;28;20736;-61
2021/12/23 10:59:07;;;;;;;19.75;15.38;;;3.90;95.70;;;;;;5095063;28;20233;-61
2021/12/23 11:01:38;;;;;;;21.98;16.67;;;3.90;95.60;;;;;;5094301;28;20233;-61
2021/12/23 11:04:07;;;;;;;19.23;17.17;;;3.90;95.60;;;;;;5094177;28;20233;-61
2021/12/23 11:06:42;;;;;;;21.02;16.83;;;4.00;95.50;;;;;;5094001;28;20310;-62
2021/12/23 11:09:34;;;;;;;18.20;14.63;;;4.00;95.60;;;;;;5094287;28;20706;-61
2021/12/23 11:30:02;;;;;;;18.95;15.35;;;4.10;95.40;;;;;;5093372;28;20234;-61
2021/12/23 11:35:43;;;;;;;21.42;15.30;;;4.10;95.50;;;;;;5093136;28;20830;-61
2021/12/23 11:38:09;;;;;;;20.65;15.00;;;4.20;95.30;;;;;;5093569;28;20230;-61
2021/12/23 11:40:52;;;;;;;17.83;15.48;;;4.10;95.30;;;;;;5093190;28;20556;-61
2021/12/23 11:43:32;;;;;;;23.10;16.30;;;4.20;95.60;;;;;;5092967;28;20246;-61
2021/12/23 11:46:00;;;;;;;19.05;14.00;;;4.30;95.70;;;;;;5093435;28;20223;-61
2021/12/23 11:48:27;;;;;;;17.55;15.02;;;4.30;95.60;;;;;;5092821;28;20230;-61
2021/12/23 11:51:01;;;;;;;19.08;15.35;;;4.40;95.30;;;;;;5093588;28;20312;-62
2021/12/23 11:53:28;;;;;;;19.63;13.70;;;4.40;95.50;;;;;;5093057;28;20231;-62
2021/12/23 11:55:57;;;;;;;25.50;17.67;;;4.40;95.30;;;;;;5093204;28;20226;-62
2021/12/23 11:58:25;;;;;;;19.23;15.07;;;4.40;95.30;;;;;;5092910;28;20226;-61
2021/12/23 12:01:04;;;;;;;17.88;14.25;;;4.40;95.30;;;;;;5092935;28;20224;-62
2021/12/23 12:03:35;;;;;;;22.65;14.02;;;4.40;95.30;;;;;;5092989;28;20558;-61
2021/12/23 12:06:17;;;;;;;17.67;14.30;;;4.50;95.30;;;;;;5092485;28;20233;-62
2021/12/23 12:08:44;;;;;;;16.27;12.93;;;4.40;95.20;;;;;;5092852;28;20662;-62
2021/12/23 12:11:18;;;;;;;16.77;13.55;;;4.50;95.20;;;;;;5093019;28;20223;-62
2021/12/23 12:13:45;;;;;;;15.88;12.10;;;4.50;95.30;;;;;;5092851;28;20288;-62
2021/12/23 12:16:30;;;;;;;23.00;16.30;;;4.60;95.30;;;;;;5092932;28;20236;-62
2021/12/23 12:18:58;;;;;;;23.15;16.45;;;4.60;95.00;;;;;;5093582;28;20224;-62
2021/12/23 12:21:28;;;;;;;18.95;15.55;;;4.60;95.10;;;;;;5092408;28;20222;-62
2021/12/23 12:24:10;;;;;;;21.15;15.25;;;4.70;95.10;;;;;;5092818;28;20233;-62
2021/12/23 12:26:51;;;;;;;27.02;19.95;;;4.70;94.90;;;;;;5093249;28;20717;-61
2021/12/23 12:29:21;;;;;;;41.00;29.95;;;4.70;94.90;;;;;;5092914;28;20290;-61
2021/12/23 12:31:48;;;;;;;36.90;24.95;;;4.70;94.90;;;;;;5092410;28;20259;-61
2021/12/23 12:34:19;;;;;;;30.08;24.10;;;4.70;94.70;;;;;;5092668;28;20256;-62
2021/12/23 12:36:49;;;;;;;48.90;38.60;;;4.80;94.80;;;;;;5092283;28;20617;-61
2021/12/23 12:39:24;;;;;;;34.40;28.42;;;4.80;94.80;;;;;;5092744;28;20242;-61
2021/12/23 12:42:00;;;;;;;28.38;21.73;;;4.90;94.70;;;;;;5092659;28;20698;-61
2021/12/23 12:44:43;;;;;;;32.92;23.55;;;4.80;94.30;;;;;;5092301;28;20305;-61
2021/12/23 12:47:15;;;;;;;59.40;36.92;;;4.80;94.50;;;;;;5092702;28;20253;-62
2021/12/23 12:49:46;;;;;;;38.47;27.67;;;4.90;94.50;;;;;;5091909;28;20321;-61
2021/12/23 12:52:20;;;;;;;30.50;21.65;;;4.80;94.50;;;;;;5092382;28;20687;-62
2021/12/23 12:54:50;;;;;;;37.95;27.63;;;4.90;94.60;;;;;;5092183;28;20226;-61
2021/12/23 12:57:20;;;;;;;25.92;17.75;;;4.90;94.60;;;;;;5092393;28;20223;-61
2021/12/23 12:59:49;;;;;;;34.30;26.55;;;4.90;94.40;;;;;;5091876;28;20236;-62
2021/12/23 13:02:31;;;;;;;33.65;24.83;;;4.90;94.40;;;;;;5092294;28;20226;-61
2021/12/23 13:05:05;;;;;;;31.60;24.52;;;4.90;94.50;;;;;;5092311;28;20775;-62
2021/12/23 13:07:35;;;;;;;30.35;23.73;;;5.00;94.50;;;;;;5092192;28;20713;-61
2021/12/23 13:10:08;;;;;;;28.00;21.52;;;5.00;94.60;;;;;;5092068;28;21550;-62
2021/12/23 13:12:50;;;;;;;26.58;23.23;;;5.10;94.70;;;;;;5092154;28;20815;-62
2021/12/23 13:15:22;;;;;;;26.88;23.98;;;5.10;94.60;;;;;;5092842;28;20230;-62
2021/12/23 13:17:58;;;;;;;23.77;21.33;;;5.20;94.60;;;;;;5094887;28;20228;-61
2021/12/23 13:20:39;;;;;;;24.75;21.60;;;5.20;94.50;;;;;;5095784;28;20252;-60
2021/12/23 13:23:11;;;;;;;40.88;36.47;;;5.20;94.50;;;;;;5096340;28;20593;-62
2021/12/23 13:25:46;;;;;;;45.15;37.83;;;5.30;94.60;;;;;;5095893;28;20225;-62
2021/12/23 13:28:25;;;;;;;58.45;49.33;;;5.30;94.50;;;;;;5093159;28;20224;-61
2021/12/23 13:30:52;;;;;;;83.30;59.28;;;5.30;94.50;;;;;;5095192;28;20961;-62
2021/12/23 13:33:19;;;;;;;71.90;55.45;;;5.30;94.50;;;;;;5095212;28;20218;-62
2021/12/23 13:35:46;;;;;;;78.88;59.08;;;5.30;94.40;;;;;;5093963;28;20685;-61
2021/12/23 13:38:28;;;;;;;121.65;86.32;;;5.30;94.50;;;;;;5095986;28;20308;-61